Portada
METAR-TAF:

METAR-TAF

Aeropuertos :

Chariton Municipal Airport

Chariton, Iowa, Estados Unidos

latitud: 41-02N, longitud: 093-22W, altitud: 320 m

Observación

El informe se hizo hace 15 minutos, a las 01:55 UTC
Viento calma
Temperatura 20°C
Humedad 64%
Presión 1015 hPa
Visibilidad: 16.1 km
Cielo despejado

METAR: KCNC 290155Z AUTO 00000KT 10SM CLR 20/13 A2998 RMK AO2

Hora: 21:10 (02:10 UTC)


TAF: falta

Observaciones y pronósticos meteorológicos de más de 4000 aeropuertos (mensajes METAR y TAF).

Los puntos amarillos y rojos representan las estaciones disponibles.

Ponga el ratón en el punto deseado para ver el nombre de la estación.

Haga clic para ver las observaciones y los pronósticos meteorológicos.

Para cambiar el mapa : haga clic en los botones verdes con una cruz de color negro para hacer un zoom, en el botón verde con un guión para alejar o en las flechas verdes para mapas adyacentes.


METAR-TAF: